»·PEaware :: N9229P KAPA-KPUB

N9229P :: KAPA-KPUB

FLIGHT INFORMATION

Flight Status: Arrived
Operator: Privately registered:
United States
More flights under this callsign
Pilot: James W. (24810)
Aircraft: PIPER PA-24 COMMANCHE
(PA24)
More flights by this aircraft type
Origin: KAPA Centennial
United States
Destination: KPUB Pueblo Meml
United States
More flights between these airports :: More routes between these airports
Route: LUFSE HELER
File this flight plan on PilotEdge
Remarks: +CW /
Altitude:
(Current/Filed)
11,000ft
Speed:
(Current/Filed)
150kts
Departed: 02-Nov-19 10:13 AM
Arrived: 02-Nov-19 10:58 AM
Distance/Time
Traveled:
79nm/0:45
Distance/Time
To Go:
Arrived

Flight Plot

Page will automatically refresh every two minutes.

Flight plan parsing failed; only flown route is shown


Map Options




Map Legend


Flown Route
Filed Route
Departure Airport
Arrival Airport
Navaid (VOR, NDB)
Fix

Horizontal Profiles

Position Reports

Time Latitude Longitude Heading Altitude Ground
Speed
02-Nov-19 09:50 39.583026 -104.848972 269 5886ft 0kts
02-Nov-19 09:51 39.583026 -104.848972 269 5886ft 0kts
02-Nov-19 09:52 39.583026 -104.848972 269 5886ft 0kts
02-Nov-19 09:53 39.583026 -104.848972 269 5886ft 0kts
02-Nov-19 09:54 39.583026 -104.848972 269 5886ft 0kts
02-Nov-19 09:55 39.583026 -104.848972 269 5886ft 0kts
02-Nov-19 09:56 39.583026 -104.848972 269 5886ft 0kts
02-Nov-19 09:57 39.583026 -104.848972 269 5886ft 0kts
02-Nov-19 09:58 39.583026 -104.848972 269 5886ft 0kts
02-Nov-19 09:59 39.583026 -104.848972 269 5886ft 0kts
02-Nov-19 10:00 39.583026 -104.848972 269 5886ft 0kts
02-Nov-19 10:01 39.583026 -104.848972 269 5886ft 0kts
02-Nov-19 10:02 39.583026 -104.848972 269 5886ft 0kts
02-Nov-19 10:03 39.583026 -104.848972 269 5886ft 0kts
02-Nov-19 10:04 39.583026 -104.848972 269 5886ft 0kts
02-Nov-19 10:04 39.583026 -104.848972 269 5886ft 0kts
02-Nov-19 10:06 39.583026 -104.848972 269 5886ft 0kts
02-Nov-19 10:07 39.583026 -104.848972 269 5886ft 0kts
02-Nov-19 10:07 39.583026 -104.848972 269 5886ft 0kts
02-Nov-19 10:08 39.583735 -104.849391 315 5886ft 6kts
02-Nov-19 10:10 39.584125 -104.850201 270 5886ft 0kts
02-Nov-19 10:10 39.584125 -104.850201 270 5886ft 0kts
02-Nov-19 10:11 39.584129 -104.850397 270 5886ft 5kts
02-Nov-19 10:12 39.571402 -104.848552 160 6227ft 104kts
02-Nov-19 10:13 39.563931 -104.880280 289 7213ft 146kts
02-Nov-19 10:14 39.574591 -104.932080 285 8000ft 167kts
02-Nov-19 10:15 39.598174 -104.983326 330 8322ft 163kts
02-Nov-19 10:16 39.635353 -104.997413 33 8392ft 118kts
02-Nov-19 10:17 39.631859 -104.960725 132 9114ft 138kts
02-Nov-19 10:18 39.603757 -104.921661 132 9826ft 153kts
02-Nov-19 10:19 39.573878 -104.880114 132 10466ft 160kts
02-Nov-19 10:20 39.542995 -104.837078 132 10970ft 159kts
02-Nov-19 10:21 39.511476 -104.793352 133 10856ft 182kts
02-Nov-19 10:22 39.477460 -104.746798 131 10972ft 169kts
02-Nov-19 10:23 39.445228 -104.700595 134 10993ft 173kts
02-Nov-19 10:24 39.411611 -104.655239 132 11000ft 174kts
02-Nov-19 10:25 39.378117 -104.609133 132 10999ft 174kts
02-Nov-19 10:26 39.344560 -104.562991 132 10999ft 174kts
02-Nov-19 10:27 39.311008 -104.516934 132 11000ft 174kts
02-Nov-19 10:28 39.277379 -104.470836 132 10999ft 174kts
02-Nov-19 10:29 39.243916 -104.425012 132 10999ft 174kts
02-Nov-19 10:30 39.207937 -104.383110 163 10996ft 174kts
02-Nov-19 10:31 39.159674 -104.374197 170 11000ft 174kts
02-Nov-19 10:32 39.110213 -104.364889 171 10757ft 180kts
02-Nov-19 10:33 39.060658 -104.355873 171 10696ft 175kts
02-Nov-19 10:34 39.012600 -104.347114 172 10697ft 172kts
02-Nov-19 10:35 38.964897 -104.338424 172 10698ft 172kts
02-Nov-19 10:36 38.917297 -104.329763 172 10698ft 172kts
02-Nov-19 10:37 38.869645 -104.321098 172 10698ft 172kts
02-Nov-19 10:38 38.821702 -104.312390 172 10697ft 173kts
02-Nov-19 10:39 38.773804 -104.303735 172 10698ft 173kts
02-Nov-19 10:40 38.725783 -104.295192 172 10698ft 173kts
02-Nov-19 10:41 38.678037 -104.286564 172 10698ft 173kts
02-Nov-19 10:42 38.630037 -104.277895 172 10698ft 173kts
02-Nov-19 10:43 38.582082 -104.269250 172 10698ft 173kts
02-Nov-19 10:44 38.534017 -104.260595 172 10698ft 173kts
02-Nov-19 10:45 38.486163 -104.251990 172 10698ft 173kts
02-Nov-19 10:46 38.438018 -104.243332 172 10610ft 177kts
02-Nov-19 10:47 38.387923 -104.233207 164 10285ft 180kts
02-Nov-19 10:48 38.339684 -104.215113 165 10012ft 180kts
02-Nov-19 10:49 38.296764 -104.231062 242 9562ft 163kts
02-Nov-19 10:50 38.292966 -104.280886 268 8829ft 119kts
02-Nov-19 10:51 38.292424 -104.318429 262 8124ft 95kts
02-Nov-19 10:52 38.290753 -104.351401 268 7434ft 95kts
02-Nov-19 10:53 38.290052 -104.384791 268 6766ft 95kts
02-Nov-19 10:54 38.289279 -104.417895 268 6130ft 89kts
02-Nov-19 10:55 38.288530 -104.451451 268 5353ft 93kts
02-Nov-19 10:56 38.287816 -104.482319 268 4648ft 51kts
02-Nov-19 10:57 38.286983 -104.491108 237 4656ft 18kts

Navigation Log

Ident Type
Flight plan parsing failed, navigation log unavailable